createdAt,value
2023-02-11T00:00:31.871Z,59.40
2023-02-11T00:02:58.781Z,59.50
2023-02-11T00:05:25.794Z,59.60
2023-02-11T00:07:52.706Z,59.60
2023-02-11T00:10:19.570Z,59.90
2023-02-11T00:12:46.643Z,59.90
2023-02-11T00:15:13.637Z,59.70
2023-02-11T00:17:40.529Z,59.40
2023-02-11T00:20:08.350Z,59.20
2023-02-11T00:22:35.284Z,59.10
2023-02-11T00:25:02.263Z,59.00
2023-02-11T00:27:29.137Z,59.00
2023-02-11T00:29:56.142Z,59.00
2023-02-11T00:32:23.026Z,59.10
2023-02-11T00:34:52.103Z,59.20
2023-02-11T00:37:18.978Z,59.50
2023-02-11T00:39:45.972Z,59.90
2023-02-11T00:42:14.460Z,59.80
2023-02-11T00:44:41.356Z,59.70
2023-02-11T00:47:08.335Z,59.70
2023-02-11T00:49:35.222Z,59.80
2023-02-11T00:52:02.088Z,59.70
2023-02-11T00:54:30.032Z,59.60
2023-02-11T00:56:56.976Z,59.60
2023-02-11T00:59:23.815Z,59.90
2023-02-11T01:01:50.812Z,59.90
2023-02-11T01:04:17.770Z,59.90
2023-02-11T01:06:44.620Z,59.80
2023-02-11T01:09:11.609Z,59.70
2023-02-11T01:11:38.793Z,59.60
2023-02-11T01:14:05.685Z,59.50
2023-02-11T01:16:32.636Z,59.60
2023-02-11T01:18:59.508Z,59.70
2023-02-11T01:21:26.452Z,60.10
2023-02-11T01:23:53.349Z,60.00
2023-02-11T01:26:20.363Z,60.20
2023-02-11T01:28:47.784Z,60.10
2023-02-11T01:31:15.332Z,60.20
2023-02-11T01:33:44.766Z,60.50
2023-02-11T01:36:12.216Z,60.90
2023-02-11T01:38:41.394Z,60.90
2023-02-11T01:41:10.125Z,60.90
2023-02-11T01:43:42.118Z,60.60
2023-02-11T01:46:41.567Z,60.20
2023-02-11T01:49:12.692Z,60.40
2023-02-11T01:51:41.862Z,60.40
2023-02-11T01:54:28.852Z,60.20
2023-02-11T01:57:16.679Z,60.20
2023-02-11T01:59:48.248Z,60.60
2023-02-11T02:02:17.067Z,60.80
2023-02-11T02:04:49.025Z,61.10
2023-02-11T02:07:20.994Z,60.80
2023-02-11T02:09:52.338Z,60.60
2023-02-11T02:12:19.258Z,60.60
2023-02-11T02:14:46.272Z,60.20
2023-02-11T02:17:39.404Z,60.20
2023-02-11T02:20:09.125Z,60.30
2023-02-11T02:22:42.045Z,60.50
2023-02-11T02:25:15.155Z,60.30
2023-02-11T02:27:55.622Z,60.20
2023-02-11T02:30:41.304Z,60.10
2023-02-11T02:33:22.459Z,60.00
2023-02-11T02:35:50.045Z,60.00
2023-02-11T02:38:32.473Z,60.10
2023-02-11T02:41:01.734Z,60.20
2023-02-11T02:43:29.514Z,60.20
2023-02-11T02:45:56.505Z,60.20
2023-02-11T02:48:31.280Z,60.70
2023-02-11T02:51:13.469Z,61.10
2023-02-11T02:53:58.910Z,61.30
2023-02-11T02:56:25.763Z,61.50
2023-02-11T02:59:04.593Z,61.70
2023-02-11T03:01:37.571Z,61.70
2023-02-11T03:04:10.546Z,61.70
2023-02-11T03:06:40.592Z,61.80
2023-02-11T03:09:12.961Z,61.80
2023-02-11T03:11:40.233Z,61.70
2023-02-11T03:14:09.989Z,61.70
2023-02-11T03:16:39.431Z,61.70
2023-02-11T03:19:10.727Z,61.70
2023-02-11T03:21:39.009Z,61.70
2023-02-11T03:24:14.521Z,61.70
2023-02-11T03:26:44.599Z,61.70
2023-02-11T03:29:11.493Z,61.70
2023-02-11T03:31:53.162Z,61.70
2023-02-11T03:34:40.230Z,61.60
2023-02-11T03:37:12.993Z,61.50
2023-02-11T03:39:43.095Z,61.40
2023-02-11T03:42:11.380Z,61.20
2023-02-11T03:44:41.605Z,61.20
2023-02-11T03:47:09.528Z,61.30
2023-02-11T03:49:37.971Z,61.20
2023-02-11T03:52:06.354Z,61.20
2023-02-11T03:54:33.686Z,61.00
2023-02-11T03:57:02.316Z,60.80
2023-02-11T03:59:29.302Z,60.60
2023-02-11T04:01:56.383Z,60.50
2023-02-11T04:04:23.320Z,60.70
2023-02-11T04:06:50.239Z,60.60
2023-02-11T04:09:17.061Z,60.40
2023-02-11T04:11:43.980Z,60.20
2023-02-11T04:14:10.830Z,60.10
2023-02-11T04:16:37.778Z,60.00
2023-02-11T04:19:05.078Z,60.00
2023-02-11T04:21:32.029Z,60.20
2023-02-11T04:23:58.850Z,60.20
2023-02-11T04:26:25.700Z,59.90
2023-02-11T04:28:52.598Z,59.80
2023-02-11T04:31:19.617Z,59.80
2023-02-11T04:33:46.552Z,59.80
2023-02-11T04:36:13.476Z,59.80
2023-02-11T04:38:40.390Z,59.90
2023-02-11T04:41:07.368Z,59.90
2023-02-11T04:43:34.266Z,59.70
2023-02-11T04:46:01.186Z,59.80
2023-02-11T04:48:28.185Z,60.10
2023-02-11T04:50:55.067Z,60.00
2023-02-11T04:53:21.962Z,60.10
2023-02-11T04:55:50.624Z,60.10
2023-02-11T04:58:18.587Z,60.10
2023-02-11T05:00:45.542Z,60.10
2023-02-11T05:03:12.507Z,60.20
2023-02-11T05:05:40.736Z,60.30
2023-02-11T05:08:08.371Z,60.20
2023-02-11T05:10:35.507Z,60.20
2023-02-11T05:13:02.761Z,60.40
2023-02-11T05:15:29.906Z,60.60
2023-02-11T05:17:56.824Z,60.60
2023-02-11T05:20:23.760Z,60.70
2023-02-11T05:22:50.642Z,60.50
2023-02-11T05:25:17.571Z,60.30
2023-02-11T05:27:44.452Z,60.20
2023-02-11T05:30:11.711Z,60.30
2023-02-11T05:32:38.971Z,60.40
2023-02-11T05:35:06.096Z,61.00
2023-02-11T05:37:33.005Z,61.30
2023-02-11T05:39:59.866Z,61.40
2023-02-11T05:42:26.730Z,61.50
2023-02-11T05:44:53.662Z,61.40
2023-02-11T05:47:20.465Z,61.20
2023-02-11T05:49:47.444Z,61.20
2023-02-11T05:52:14.378Z,61.20
2023-02-11T05:54:41.220Z,61.20
2023-02-11T05:57:08.215Z,61.20
2023-02-11T05:59:35.071Z,61.20
2023-02-11T06:02:02.410Z,60.90
2023-02-11T06:04:29.285Z,60.80
2023-02-11T06:06:56.735Z,60.90
2023-02-11T06:09:23.610Z,60.80
2023-02-11T06:11:50.617Z,60.60
2023-02-11T06:14:17.448Z,60.40
2023-02-11T06:16:44.394Z,60.40
2023-02-11T06:19:11.657Z,60.20
2023-02-11T06:21:44.221Z,60.30
2023-02-11T06:24:11.928Z,60.50
2023-02-11T06:26:38.858Z,60.50
2023-02-11T06:29:05.781Z,60.50
2023-02-11T06:31:32.710Z,60.50
2023-02-11T06:33:59.740Z,60.50
2023-02-11T06:36:26.640Z,60.60
2023-02-11T06:38:53.621Z,60.50
2023-02-11T06:41:20.525Z,60.50
2023-02-11T06:43:47.443Z,60.40
2023-02-11T06:46:14.776Z,60.30
2023-02-11T06:48:43.776Z,60.30
2023-02-11T06:51:13.283Z,60.30
2023-02-11T06:53:43.509Z,60.40
2023-02-11T06:56:11.540Z,60.30
2023-02-11T06:58:38.490Z,60.30
2023-02-11T07:01:06.862Z,60.30
2023-02-11T07:03:36.205Z,60.10
2023-02-11T07:06:04.726Z,60.20
2023-02-11T07:08:35.239Z,60.40
2023-02-11T07:11:02.373Z,60.40
2023-02-11T07:13:29.223Z,60.50
2023-02-11T07:15:56.153Z,60.50
2023-02-11T07:18:23.031Z,60.40
2023-02-11T07:20:49.918Z,60.40
2023-02-11T07:23:16.726Z,60.40
2023-02-11T07:25:43.587Z,60.40
2023-02-11T07:28:10.472Z,60.50
2023-02-11T07:30:37.432Z,60.40
2023-02-11T07:33:04.266Z,60.50
2023-02-11T07:35:31.562Z,60.40
2023-02-11T07:37:58.399Z,60.30
2023-02-11T07:40:25.367Z,60.30
2023-02-11T07:42:52.173Z,60.10
2023-02-11T07:45:19.026Z,60.20
2023-02-11T07:47:45.953Z,60.20
2023-02-11T07:50:12.843Z,60.30
2023-02-11T07:52:39.691Z,60.30
2023-02-11T07:55:06.600Z,60.20
2023-02-11T07:57:33.467Z,60.20
2023-02-11T08:00:00.353Z,60.20
2023-02-11T08:02:27.306Z,60.20
2023-02-11T08:04:54.169Z,60.10
2023-02-11T08:07:20.979Z,60.10
2023-02-11T08:09:49.209Z,60.10
2023-02-11T08:12:16.276Z,60.20
2023-02-11T08:14:43.181Z,60.00
2023-02-11T08:17:10.021Z,60.00
2023-02-11T08:19:37.296Z,60.00
2023-02-11T08:22:04.390Z,59.90
2023-02-11T08:24:31.246Z,59.90
2023-02-11T08:26:58.209Z,59.90
2023-02-11T08:29:25.316Z,59.70
2023-02-11T08:31:52.223Z,59.50
2023-02-11T08:34:19.334Z,59.80
2023-02-11T08:36:47.412Z,59.70
2023-02-11T08:39:20.258Z,59.80
2023-02-11T08:41:49.053Z,59.60
2023-02-11T08:44:16.363Z,59.40
2023-02-11T08:46:43.227Z,59.20
2023-02-11T08:49:10.179Z,58.90
2023-02-11T08:51:37.131Z,58.70
2023-02-11T08:54:04.110Z,58.70
2023-02-11T08:56:32.550Z,58.50
2023-02-11T08:58:59.391Z,58.30
2023-02-11T09:01:27.775Z,58.20
2023-02-11T09:03:55.034Z,58.10
2023-02-11T09:06:22.651Z,58.20
2023-02-11T09:08:51.147Z,58.20
2023-02-11T09:11:19.095Z,59.00
2023-02-11T09:13:46.277Z,60.00
2023-02-11T09:16:17.833Z,59.20
2023-02-11T09:18:45.843Z,58.80
2023-02-11T09:21:13.140Z,58.60
2023-02-11T09:23:42.023Z,58.50
2023-02-11T09:26:10.004Z,58.40
2023-02-11T09:28:37.119Z,58.30
2023-02-11T09:31:07.803Z,58.30
2023-02-11T09:33:34.879Z,58.30
2023-02-11T09:36:03.156Z,58.30
2023-02-11T09:38:30.291Z,58.30
2023-02-11T09:40:57.180Z,58.30
2023-02-11T09:43:36.949Z,58.20
2023-02-11T09:46:04.510Z,57.90
2023-02-11T09:48:37.499Z,57.90
2023-02-11T09:51:04.795Z,57.90
2023-02-11T09:53:35.619Z,57.90
2023-02-11T09:56:05.417Z,57.80
2023-02-11T09:58:34.785Z,57.70
2023-02-11T10:01:07.395Z,57.70
2023-02-11T10:03:34.287Z,57.70
2023-02-11T10:06:04.150Z,57.70
2023-02-11T10:08:37.525Z,57.60
2023-02-11T10:11:08.930Z,57.60
2023-02-11T10:13:40.854Z,57.50
2023-02-11T10:16:29.486Z,57.50
2023-02-11T10:19:10.016Z,57.40
2023-02-11T10:21:55.455Z,57.20
2023-02-11T10:24:22.334Z,57.20
2023-02-11T10:26:49.301Z,57.10
2023-02-11T10:29:22.257Z,57.00
2023-02-11T10:31:50.808Z,57.00
2023-02-11T10:34:17.959Z,57.00
2023-02-11T10:36:46.792Z,56.90
2023-02-11T10:39:18.526Z,56.80
2023-02-11T10:41:51.327Z,56.80
2023-02-11T10:44:36.860Z,56.90
2023-02-11T10:47:15.839Z,57.00
2023-02-11T10:49:43.912Z,57.00
2023-02-11T10:52:22.867Z,56.90
2023-02-11T10:55:16.385Z,56.90
2023-02-11T10:57:50.029Z,56.80
2023-02-11T11:00:37.042Z,56.70
2023-02-11T11:03:05.754Z,56.50
2023-02-11T11:05:36.279Z,56.50
2023-02-11T11:08:05.505Z,56.50
2023-02-11T11:10:43.798Z,56.50
2023-02-11T11:13:27.405Z,56.40
2023-02-11T11:16:12.837Z,56.20
2023-02-11T11:18:40.750Z,56.00
2023-02-11T11:21:12.843Z,55.80
2023-02-11T11:23:40.139Z,55.90
2023-02-11T11:26:09.345Z,55.80
2023-02-11T11:28:39.856Z,55.80
2023-02-11T11:31:13.722Z,55.70
2023-02-11T11:33:42.056Z,55.60
2023-02-11T11:36:10.975Z,55.60
2023-02-11T11:38:43.102Z,55.50
2023-02-11T11:41:13.624Z,55.50
2023-02-11T11:43:40.554Z,55.40
2023-02-11T11:46:09.858Z,55.40
2023-02-11T11:48:40.525Z,55.40
2023-02-11T11:51:10.436Z,55.30
2023-02-11T11:53:46.238Z,55.30
2023-02-11T11:56:24.468Z,55.20
2023-02-11T11:58:51.634Z,55.00
2023-02-11T12:01:24.503Z,54.90
2023-02-11T12:04:08.942Z,54.70
2023-02-11T12:06:51.250Z,54.70
2023-02-11T12:09:37.235Z,54.80
2023-02-11T12:12:16.479Z,54.80
2023-02-11T12:14:54.548Z,54.80
2023-02-11T12:17:27.627Z,54.80
2023-02-11T12:20:14.330Z,54.90
2023-02-11T12:22:50.147Z,54.90
2023-02-11T12:25:16.965Z,54.80
2023-02-11T12:28:02.288Z,54.80
2023-02-11T12:30:29.100Z,54.90
2023-02-11T12:33:02.601Z,55.00
2023-02-11T12:35:38.677Z,55.00
2023-02-11T12:38:20.010Z,55.00
2023-02-11T12:40:46.967Z,55.10
2023-02-11T12:43:22.085Z,55.10
2023-02-11T12:46:01.058Z,55.00
2023-02-11T12:48:46.667Z,55.00
2023-02-11T12:51:19.887Z,55.10
2023-02-11T12:54:19.382Z,55.20
2023-02-11T12:56:52.164Z,55.10
2023-02-11T12:59:31.207Z,55.10
2023-02-11T13:02:00.218Z,55.10
2023-02-11T13:04:30.941Z,55.10
2023-02-11T13:07:02.457Z,55.10
2023-02-11T13:09:32.705Z,55.00
2023-02-11T13:12:21.119Z,55.10
2023-02-11T13:14:48.835Z,55.10
2023-02-11T13:17:28.172Z,55.10
2023-02-11T13:19:59.362Z,55.10
2023-02-11T13:22:37.650Z,55.10
2023-02-11T13:25:19.436Z,55.00
2023-02-11T13:27:59.231Z,55.00
2023-02-11T13:30:33.737Z,55.00
2023-02-11T13:33:03.679Z,55.10
2023-02-11T13:35:37.851Z,55.10
2023-02-11T13:38:05.791Z,55.20
2023-02-11T13:40:34.667Z,55.20
2023-02-11T13:43:02.765Z,55.30
2023-02-11T13:45:29.831Z,55.30
2023-02-11T13:48:01.508Z,55.30
2023-02-11T13:50:28.817Z,55.30
2023-02-11T13:53:03.708Z,55.30
2023-02-11T13:55:30.957Z,55.40
2023-02-11T13:58:07.005Z,55.40
2023-02-11T14:00:33.924Z,55.40
2023-02-11T14:03:31.788Z,55.40
2023-02-11T14:06:27.022Z,55.40
2023-02-11T14:09:02.527Z,55.40
2023-02-11T14:11:41.827Z,55.40
2023-02-11T14:14:19.662Z,55.50
2023-02-11T14:16:58.877Z,56.70
2023-02-11T14:19:33.333Z,57.40
2023-02-11T14:22:20.691Z,56.70
2023-02-11T14:24:49.570Z,56.30
2023-02-11T14:27:35.731Z,56.10
2023-02-11T14:30:09.324Z,56.00
2023-02-11T14:32:53.323Z,56.00
2023-02-11T14:35:23.238Z,56.00
2023-02-11T14:37:59.023Z,56.00
2023-02-11T14:40:29.435Z,56.00
2023-02-11T14:42:57.162Z,56.00
2023-02-11T14:45:26.542Z,56.10
2023-02-11T14:47:58.430Z,56.10
2023-02-11T14:50:44.093Z,56.20
2023-02-11T14:53:15.499Z,56.30
2023-02-11T14:55:43.414Z,56.20
2023-02-11T14:58:13.904Z,56.30
2023-02-11T15:01:10.624Z,56.30
2023-02-11T15:03:39.042Z,56.30
2023-02-11T15:06:18.636Z,56.20
2023-02-11T15:08:48.709Z,56.30
2023-02-11T15:11:17.669Z,56.30
2023-02-11T15:13:47.631Z,56.30
2023-02-11T15:16:18.659Z,56.30
2023-02-11T15:18:47.970Z,56.30
2023-02-11T15:21:20.717Z,56.30
2023-02-11T15:24:16.887Z,56.30
2023-02-11T15:26:43.816Z,56.30
2023-02-11T15:29:16.461Z,56.40
2023-02-11T15:31:45.440Z,56.50
2023-02-11T15:34:13.130Z,56.50
2023-02-11T15:36:40.224Z,56.50
2023-02-11T15:39:28.949Z,56.50
2023-02-11T15:41:55.923Z,56.60
2023-02-11T15:44:30.064Z,57.20
2023-02-11T15:46:57.433Z,57.10
2023-02-11T15:49:25.152Z,57.10
2023-02-11T15:51:52.810Z,57.10
2023-02-11T15:54:24.330Z,57.10
2023-02-11T15:56:52.175Z,57.10
2023-02-11T15:59:36.262Z,57.20
2023-02-11T16:02:07.727Z,57.30
2023-02-11T16:04:35.372Z,57.30
2023-02-11T16:07:02.354Z,57.50
2023-02-11T16:09:36.821Z,57.50
2023-02-11T16:12:07.647Z,57.50
2023-02-11T16:14:39.470Z,57.50
2023-02-11T16:17:11.102Z,57.50
2023-02-11T16:19:43.754Z,57.50
2023-02-11T16:22:11.972Z,57.50
2023-02-11T16:24:39.560Z,60.30
2023-02-11T16:27:07.996Z,59.00
2023-02-11T16:29:36.948Z,58.20
2023-02-11T16:32:07.236Z,57.90
2023-02-11T16:34:34.240Z,57.90
2023-02-11T16:37:03.564Z,57.80
2023-02-11T16:39:30.450Z,57.60
2023-02-11T16:41:58.475Z,61.00
2023-02-11T16:44:25.512Z,59.70
2023-02-11T16:46:52.940Z,58.60
2023-02-11T16:49:25.636Z,58.10
2023-02-11T16:51:53.823Z,57.90
2023-02-11T16:54:20.727Z,57.80
2023-02-11T16:56:47.653Z,57.80
2023-02-11T16:59:14.745Z,57.90
2023-02-11T17:01:42.545Z,57.90
2023-02-11T17:04:18.696Z,57.90
2023-02-11T17:06:45.644Z,57.90
2023-02-11T17:09:16.943Z,58.00
2023-02-11T17:11:43.752Z,58.00
2023-02-11T17:14:10.636Z,58.00
2023-02-11T17:16:38.526Z,58.00
2023-02-11T17:19:05.444Z,58.00
2023-02-11T17:21:32.426Z,58.00
2023-02-11T17:24:00.008Z,58.00
2023-02-11T17:26:26.991Z,58.10
2023-02-11T17:28:54.112Z,58.10
2023-02-11T17:31:21.229Z,58.10
2023-02-11T17:33:48.610Z,58.10
2023-02-11T17:36:15.902Z,58.20
2023-02-11T17:38:42.919Z,58.20
2023-02-11T17:41:10.410Z,58.20
2023-02-11T17:43:38.116Z,58.20
2023-02-11T17:46:08.590Z,58.30
2023-02-11T17:48:39.234Z,58.30
2023-02-11T17:51:22.123Z,58.40
2023-02-11T17:53:49.293Z,58.50
2023-02-11T17:56:16.308Z,58.50
2023-02-11T17:58:44.913Z,58.50
2023-02-11T18:01:12.018Z,58.50
2023-02-11T18:03:38.957Z,58.50
2023-02-11T18:06:06.937Z,58.50
2023-02-11T18:08:34.376Z,58.50
2023-02-11T18:11:01.422Z,58.50
2023-02-11T18:13:29.011Z,58.50
2023-02-11T18:15:56.034Z,58.60
2023-02-11T18:18:23.020Z,58.60
2023-02-11T18:20:57.572Z,58.60
2023-02-11T18:23:24.680Z,58.70
2023-02-11T18:25:51.893Z,58.80
2023-02-11T18:28:19.218Z,58.70
2023-02-11T18:30:46.491Z,58.80
2023-02-11T18:33:14.720Z,58.80
2023-02-11T18:35:42.262Z,58.90
2023-02-11T18:38:09.615Z,58.90
2023-02-11T18:40:40.023Z,58.90
2023-02-11T18:43:07.672Z,59.00
2023-02-11T18:45:34.695Z,59.00
2023-02-11T18:48:03.809Z,59.00
2023-02-11T18:50:31.046Z,59.20
2023-02-11T18:52:57.897Z,59.20
2023-02-11T18:55:26.072Z,59.30
2023-02-11T18:57:53.031Z,59.40
2023-02-11T19:00:20.631Z,59.40
2023-02-11T19:02:47.626Z,59.40
2023-02-11T19:05:15.845Z,59.50
2023-02-11T19:07:42.831Z,59.50
2023-02-11T19:10:10.384Z,59.60
2023-02-11T19:12:39.425Z,59.60
2023-02-11T19:15:09.388Z,59.70
2023-02-11T19:17:36.404Z,59.70
2023-02-11T19:20:06.083Z,59.70
2023-02-11T19:22:33.172Z,59.70
2023-02-11T19:25:00.147Z,59.80
2023-02-11T19:27:27.069Z,59.80
2023-02-11T19:29:54.104Z,59.80
2023-02-11T19:32:21.146Z,59.90
2023-02-11T19:34:48.086Z,59.90
2023-02-11T19:37:15.392Z,59.90
2023-02-11T19:39:43.107Z,59.90
2023-02-11T19:42:10.330Z,59.80
2023-02-11T19:44:37.305Z,60.00
2023-02-11T19:47:04.462Z,60.00
2023-02-11T19:49:32.808Z,59.80
2023-02-11T19:51:59.699Z,59.80
2023-02-11T19:54:27.279Z,60.00
2023-02-11T19:56:54.190Z,60.00
2023-02-11T19:59:21.495Z,60.10
2023-02-11T20:01:49.348Z,60.10
2023-02-11T20:04:16.685Z,60.10
2023-02-11T20:06:43.766Z,60.20
2023-02-11T20:09:13.062Z,60.20
2023-02-11T20:11:40.190Z,60.20
2023-02-11T20:14:07.328Z,60.20
2023-02-11T20:16:47.524Z,60.30
2023-02-11T20:19:20.683Z,60.30
2023-02-11T20:21:48.560Z,60.30
2023-02-11T20:24:16.460Z,60.30
2023-02-11T20:26:43.754Z,60.40
2023-02-11T20:29:10.908Z,60.40
2023-02-11T20:31:37.912Z,60.40
2023-02-11T20:34:04.896Z,60.40
2023-02-11T20:36:35.697Z,60.40
2023-02-11T20:39:05.023Z,60.50
2023-02-11T20:41:34.443Z,60.40
2023-02-11T20:44:02.372Z,60.40
2023-02-11T20:46:30.329Z,60.40
2023-02-11T20:48:57.699Z,60.40
2023-02-11T20:51:26.736Z,60.40
2023-02-11T20:53:53.805Z,60.50
2023-02-11T20:56:22.275Z,60.50
2023-02-11T20:58:49.655Z,60.50
2023-02-11T21:01:24.371Z,60.50
2023-02-11T21:03:52.877Z,60.60
2023-02-11T21:06:20.502Z,60.60
2023-02-11T21:08:47.429Z,60.60
2023-02-11T21:11:14.435Z,60.60
2023-02-11T21:13:41.778Z,60.70
2023-02-11T21:16:11.280Z,60.70
2023-02-11T21:18:38.184Z,60.70
2023-02-11T21:21:07.000Z,60.80
2023-02-11T21:23:34.839Z,60.80
2023-02-11T21:26:01.787Z,60.90
2023-02-11T21:28:28.704Z,60.80
2023-02-11T21:30:56.501Z,61.00
2023-02-11T21:33:24.021Z,61.00
2023-02-11T21:35:54.596Z,61.10
2023-02-11T21:38:22.331Z,61.00
2023-02-11T21:40:49.214Z,61.10
2023-02-11T21:43:16.121Z,61.30
2023-02-11T21:45:44.078Z,61.30
2023-02-11T21:48:10.931Z,61.40
2023-02-11T21:50:45.057Z,61.50
2023-02-11T21:53:12.052Z,61.50
2023-02-11T21:55:39.568Z,61.50
2023-02-11T21:58:06.945Z,61.50
2023-02-11T22:00:33.999Z,61.60
2023-02-11T22:03:00.813Z,61.50
2023-02-11T22:05:27.810Z,61.50
2023-02-11T22:07:54.852Z,61.50
2023-02-11T22:10:21.732Z,61.50
2023-02-11T22:12:48.733Z,61.50
2023-02-11T22:15:15.650Z,61.50
2023-02-11T22:17:42.549Z,61.50
2023-02-11T22:20:10.350Z,61.50
2023-02-11T22:22:37.249Z,61.50
2023-02-11T22:25:04.308Z,61.50
2023-02-11T22:27:31.228Z,61.50
2023-02-11T22:29:58.226Z,61.40
2023-02-11T22:32:25.229Z,61.50
2023-02-11T22:34:53.448Z,61.50
2023-02-11T22:37:20.704Z,61.50
2023-02-11T22:39:47.656Z,61.50
2023-02-11T22:42:14.555Z,61.50
2023-02-11T22:44:41.476Z,61.50
2023-02-11T22:47:08.361Z,61.50
2023-02-11T22:49:35.830Z,61.50
2023-02-11T22:52:02.717Z,61.60
2023-02-11T22:54:29.598Z,61.70
2023-02-11T22:56:56.450Z,61.70
2023-02-11T22:59:23.405Z,61.70
2023-02-11T23:01:50.459Z,61.70
2023-02-11T23:04:19.344Z,61.80
2023-02-11T23:06:47.776Z,61.80
2023-02-11T23:09:14.772Z,61.70
2023-02-11T23:11:42.053Z,61.70
2023-02-11T23:14:12.431Z,61.80
2023-02-11T23:16:39.553Z,61.80
2023-02-11T23:19:07.557Z,61.80
2023-02-11T23:21:35.904Z,61.90
2023-02-11T23:24:07.588Z,61.80
2023-02-11T23:26:35.106Z,61.80
2023-02-11T23:29:02.059Z,61.90
2023-02-11T23:31:37.653Z,61.90
2023-02-11T23:34:04.680Z,62.00
2023-02-11T23:36:31.871Z,62.00
2023-02-11T23:38:59.053Z,62.10
2023-02-11T23:41:25.944Z,62.20
2023-02-11T23:43:56.751Z,62.30
2023-02-11T23:46:24.684Z,62.40
2023-02-11T23:48:52.438Z,62.30
2023-02-11T23:51:19.336Z,62.40
2023-02-11T23:53:46.565Z,62.50
2023-02-11T23:56:15.065Z,62.50
2023-02-11T23:58:42.286Z,62.60
